Rantoul, Illinois
Current Conditions -  °F | °C
As of 8:10 AM on Saturday 25 Oct 2014 (Local Time) from KTIP Reporting Station
Haze Haze  
Wind Chill: 54°   Ceiling: Unl
Heat Index: 54°   Visibility: 5mi
Dew Point: 52°   Wind: 5mph
Humidity: 92%   Direction: 270°W
Pressure: 29.98"   Gusts: NA
Location:  40.31°N, 88.15°W
Report Text: KTIP 251310Z AUTO 27004KT 5SM BR CLR 12/11 A2998 RMK AO2 T01220109
Loading
Personal Weather Stations






























Interactive Weather Map
Tropical Storm Tracking
New forecast layout! Learn more

10-Day Weather Forecast

Advertisements
Track Severe Weather on mobile